sensor_id;sensor_type;location;lat;lon;timestamp;pressure;altitude;pressure_sealevel;temperature;humidity
68179;BME280;69812;42.632;23.440;2023-08-12T00:00:15;95666.81;;;13.52;88.03
68179;BME280;69812;42.632;23.440;2023-08-12T00:02:41;95667.41;;;13.36;88.40
68179;BME280;69812;42.632;23.440;2023-08-12T00:05:07;95660.59;;;13.25;88.66
68179;BME280;69812;42.632;23.440;2023-08-12T00:07:33;95657.03;;;13.26;88.80
68179;BME280;69812;42.632;23.440;2023-08-12T00:10:04;95658.69;;;13.27;89.05
68179;BME280;69812;42.632;23.440;2023-08-12T00:12:33;95660.06;;;13.12;88.89
68179;BME280;69812;42.632;23.440;2023-08-12T00:14:59;95658.97;;;13.14;89.39
68179;BME280;69812;42.632;23.440;2023-08-12T00:17:34;95658.13;;;13.14;89.58
68179;BME280;69812;42.632;23.440;2023-08-12T00:20:10;95658.94;;;13.05;89.81
68179;BME280;69812;42.632;23.440;2023-08-12T00:22:39;95655.53;;;12.94;89.97
68179;BME280;69812;42.632;23.440;2023-08-12T00:25:08;95658.69;;;12.88;89.98
68179;BME280;69812;42.632;23.440;2023-08-12T00:27:34;95654.19;;;12.81;90.38
68179;BME280;69812;42.632;23.440;2023-08-12T00:29:59;95655.41;;;12.77;90.55
68179;BME280;69812;42.632;23.440;2023-08-12T00:32:32;95648.50;;;12.67;90.35
68179;BME280;69812;42.632;23.440;2023-08-12T00:35:00;95653.63;;;12.77;90.70
68179;BME280;69812;42.632;23.440;2023-08-12T00:37:25;95653.22;;;12.72;90.71
68179;BME280;69812;42.632;23.440;2023-08-12T00:39:50;95655.69;;;12.73;90.93
68179;BME280;69812;42.632;23.440;2023-08-12T00:42:18;95652.56;;;12.70;90.98
68179;BME280;69812;42.632;23.440;2023-08-12T00:44:46;95657.97;;;12.67;91.23
68179;BME280;69812;42.632;23.440;2023-08-12T00:47:12;95658.50;;;12.61;91.49
68179;BME280;69812;42.632;23.440;2023-08-12T00:49:39;95660.97;;;12.62;91.41
68179;BME280;69812;42.632;23.440;2023-08-12T00:52:05;95654.69;;;12.55;91.80
68179;BME280;69812;42.632;23.440;2023-08-12T00:54:32;95656.06;;;12.49;91.92
68179;BME280;69812;42.632;23.440;2023-08-12T00:56:58;95642.75;;;12.44;91.89
68179;BME280;69812;42.632;23.440;2023-08-12T00:59:24;95644.09;;;12.39;92.17
68179;BME280;69812;42.632;23.440;2023-08-12T01:01:50;95661.44;;;12.46;92.29
68179;BME280;69812;42.632;23.440;2023-08-12T01:04:15;95647.78;;;12.46;92.00
68179;BME280;69812;42.632;23.440;2023-08-12T01:06:45;95628.09;;;12.25;92.10
68179;BME280;69812;42.632;23.440;2023-08-12T01:09:10;95640.81;;;12.27;92.35
68179;BME280;69812;42.632;23.440;2023-08-12T01:12:05;95644.47;;;12.24;92.34
68179;BME280;69812;42.632;23.440;2023-08-12T01:17:02;95643.88;;;12.11;92.62
68179;BME280;69812;42.632;23.440;2023-08-12T01:19:33;95640.44;;;12.01;93.03
68179;BME280;69812;42.632;23.440;2023-08-12T01:22:02;95645.75;;;12.09;93.28
68179;BME280;69812;42.632;23.440;2023-08-12T01:24:39;95643.81;;;11.91;93.36
68179;BME280;69812;42.632;23.440;2023-08-12T01:27:06;95645.19;;;12.05;93.49
68179;BME280;69812;42.632;23.440;2023-08-12T01:29:41;95638.09;;;11.88;93.55
68179;BME280;69812;42.632;23.440;2023-08-12T01:34:53;95639.94;;;11.86;93.87
68179;BME280;69812;42.632;23.440;2023-08-12T01:37:29;95632.50;;;11.83;93.56
68179;BME280;69812;42.632;23.440;2023-08-12T01:39:59;95633.56;;;11.80;94.12
68179;BME280;69812;42.632;23.440;2023-08-12T01:42:25;95627.44;;;11.71;93.89
68179;BME280;69812;42.632;23.440;2023-08-12T01:44:51;95632.59;;;11.71;93.96
68179;BME280;69812;42.632;23.440;2023-08-12T01:47:17;95635.91;;;11.62;93.91
68179;BME280;69812;42.632;23.440;2023-08-12T01:49:42;95637.84;;;11.70;94.32
68179;BME280;69812;42.632;23.440;2023-08-12T01:52:08;95632.69;;;11.70;94.38
68179;BME280;69812;42.632;23.440;2023-08-12T01:54:39;95635.66;;;11.65;94.27
68179;BME280;69812;42.632;23.440;2023-08-12T01:57:04;95640.38;;;11.60;94.27
68179;BME280;69812;42.632;23.440;2023-08-12T01:59:39;95632.53;;;11.62;94.23
68179;BME280;69812;42.632;23.440;2023-08-12T02:02:05;95628.25;;;11.51;94.19
68179;BME280;69812;42.632;23.440;2023-08-12T02:04:30;95641.69;;;11.55;94.65
68179;BME280;69812;42.632;23.440;2023-08-12T02:06:56;95630.41;;;11.46;94.66
68179;BME280;69812;42.632;23.440;2023-08-12T02:09:24;95641.69;;;11.55;94.69
68179;BME280;69812;42.632;23.440;2023-08-12T02:11:50;95646.41;;;11.49;94.96
68179;BME280;69812;42.632;23.440;2023-08-12T02:14:15;95634.84;;;11.44;94.97
68179;BME280;69812;42.632;23.440;2023-08-12T02:16:41;95634.78;;;11.34;95.14
68179;BME280;69812;42.632;23.440;2023-08-12T02:19:06;95648.22;;;11.38;95.30
68179;BME280;69812;42.632;23.440;2023-08-12T02:21:32;95639.25;;;11.32;95.21
68179;BME280;69812;42.632;23.440;2023-08-12T02:23:57;95643.81;;;11.28;95.42
68179;BME280;69812;42.632;23.440;2023-08-12T02:26:28;95647.78;;;11.33;95.44
68179;BME280;69812;42.632;23.440;2023-08-12T02:28:53;95656.50;;;11.41;95.93
68179;BME280;69812;42.632;23.440;2023-08-12T02:31:21;95657.47;;;11.29;95.59
68179;BME280;69812;42.632;23.440;2023-08-12T02:33:50;95654.00;;;11.30;95.76
68179;BME280;69812;42.632;23.440;2023-08-12T02:36:15;95650.47;;;11.31;95.75
68179;BME280;69812;42.632;23.440;2023-08-12T02:38:43;95655.19;;;11.26;95.74
68179;BME280;69812;42.632;23.440;2023-08-12T02:41:09;95659.38;;;11.27;96.24
68179;BME280;69812;42.632;23.440;2023-08-12T02:43:38;95658.19;;;11.31;96.20
68179;BME280;69812;42.632;23.440;2023-08-12T02:46:06;95663.69;;;11.26;96.08
68179;BME280;69812;42.632;23.440;2023-08-12T02:48:37;95653.47;;;11.15;96.05
68179;BME280;69812;42.632;23.440;2023-08-12T02:51:02;95659.16;;;11.19;95.79
68179;BME280;69812;42.632;23.440;2023-08-12T02:53:28;95654.88;;;11.08;96.31
68179;BME280;69812;42.632;23.440;2023-08-12T02:55:53;95660.59;;;11.12;96.20
68179;BME280;69812;42.632;23.440;2023-08-12T02:58:19;95674.94;;;11.14;96.25
68179;BME280;69812;42.632;23.440;2023-08-12T03:00:44;95656.91;;;11.04;96.18
68179;BME280;69812;42.632;23.440;2023-08-12T03:03:12;95659.78;;;11.11;95.97
68179;BME280;69812;42.632;23.440;2023-08-12T03:05:38;95661.66;;;11.09;95.93
68179;BME280;69812;42.632;23.440;2023-08-12T03:08:13;95666.47;;;11.02;96.00
68179;BME280;69812;42.632;23.440;2023-08-12T03:10:41;95666.72;;;10.99;96.03
68179;BME280;69812;42.632;23.440;2023-08-12T03:13:07;95673.00;;;11.06;96.13
68179;BME280;69812;42.632;23.440;2023-08-12T03:15:33;95671.47;;;11.15;95.99
68179;BME280;69812;42.632;23.440;2023-08-12T03:17:58;95672.53;;;11.13;96.03
68179;BME280;69812;42.632;23.440;2023-08-12T03:20:26;95674.22;;;11.23;96.28
68179;BME280;69812;42.632;23.440;2023-08-12T03:22:59;95676.38;;;11.07;96.30
68179;BME280;69812;42.632;23.440;2023-08-12T03:25:27;95671.47;;;11.15;96.83
68179;BME280;69812;42.632;23.440;2023-08-12T03:27:55;95664.50;;;11.27;96.63
68179;BME280;69812;42.632;23.440;2023-08-12T03:30:23;95678.78;;;11.20;96.74
68179;BME280;69812;42.632;23.440;2023-08-12T03:32:53;95677.16;;;11.40;96.98
68179;BME280;69812;42.632;23.440;2023-08-12T03:35:18;95667.31;;;11.24;96.92
68179;BME280;69812;42.632;23.440;2023-08-12T03:37:46;95679.09;;;11.26;97.15
68179;BME280;69812;42.632;23.440;2023-08-12T03:40:16;95677.59;;;11.24;97.34
68179;BME280;69812;42.632;23.440;2023-08-12T03:42:44;95675.78;;;11.15;97.51
68179;BME280;69812;42.632;23.440;2023-08-12T03:45:12;95678.72;;;11.31;97.67
68179;BME280;69812;42.632;23.440;2023-08-12T03:47:45;95688.41;;;11.39;97.89
68179;BME280;69812;42.632;23.440;2023-08-12T03:50:13;95688.06;;;11.53;98.32
68179;BME280;69812;42.632;23.440;2023-08-12T03:52:39;95690.69;;;11.84;98.55
68179;BME280;69812;42.632;23.440;2023-08-12T03:55:07;95690.91;;;11.92;98.25
68179;BME280;69812;42.632;23.440;2023-08-12T03:57:34;95676.59;;;11.99;97.84
68179;BME280;69812;42.632;23.440;2023-08-12T04:00:02;95691.50;;;12.05;96.84
68179;BME280;69812;42.632;23.440;2023-08-12T04:02:29;95676.34;;;12.02;97.17
68179;BME280;69812;42.632;23.440;2023-08-12T04:04:54;95679.22;;;12.19;97.37
68179;BME280;69812;42.632;23.440;2023-08-12T04:07:19;95676.16;;;12.25;96.96
68179;BME280;69812;42.632;23.440;2023-08-12T04:09:47;95678.31;;;12.60;95.80
68179;BME280;69812;42.632;23.440;2023-08-12T04:12:15;95680.97;;;13.28;95.47
68179;BME280;69812;42.632;23.440;2023-08-12T04:14:40;95679.66;;;15.02;88.25
68179;BME280;69812;42.632;23.440;2023-08-12T04:17:08;95683.44;;;17.23;78.92
68179;BME280;69812;42.632;23.440;2023-08-12T04:19:37;95681.59;;;19.24;68.39
68179;BME280;69812;42.632;23.440;2023-08-12T04:22:02;95677.03;;;20.76;60.67
68179;BME280;69812;42.632;23.440;2023-08-12T04:24:28;95686.38;;;21.65;56.92
68179;BME280;69812;42.632;23.440;2023-08-12T04:26:56;95692.84;;;22.67;52.50
68179;BME280;69812;42.632;23.440;2023-08-12T04:29:24;95695.25;;;23.10;49.01
68179;BME280;69812;42.632;23.440;2023-08-12T04:31:50;95692.69;;;24.10;45.89
68179;BME280;69812;42.632;23.440;2023-08-12T04:34:20;95691.09;;;24.80;44.02
68179;BME280;69812;42.632;23.440;2023-08-12T04:36:46;95693.28;;;26.11;40.47
68179;BME280;69812;42.632;23.440;2023-08-12T04:39:16;95689.81;;;26.17;39.94
68179;BME280;69812;42.632;23.440;2023-08-12T04:41:42;95691.72;;;26.28;38.96
68179;BME280;69812;42.632;23.440;2023-08-12T04:44:09;95690.94;;;26.64;38.14
68179;BME280;69812;42.632;23.440;2023-08-12T04:46:35;95697.41;;;26.99;37.50
68179;BME280;69812;42.632;23.440;2023-08-12T04:49:00;95692.81;;;25.70;40.38
68179;BME280;69812;42.632;23.440;2023-08-12T04:51:25;95693.69;;;27.07;37.56
68179;BME280;69812;42.632;23.440;2023-08-12T04:53:52;95702.41;;;26.89;37.77
68179;BME280;69812;42.632;23.440;2023-08-12T04:56:17;95694.25;;;27.39;37.04
68179;BME280;69812;42.632;23.440;2023-08-12T04:58:45;95697.63;;;27.46;36.32
68179;BME280;69812;42.632;23.440;2023-08-12T05:01:10;95694.50;;;28.03;34.52
68179;BME280;69812;42.632;23.440;2023-08-12T05:03:38;95693.63;;;28.73;33.76
68179;BME280;69812;42.632;23.440;2023-08-12T05:06:04;95692.88;;;28.61;33.89
68179;BME280;69812;42.632;23.440;2023-08-12T05:08:30;95691.09;;;29.19;32.96
68179;BME280;69812;42.632;23.440;2023-08-12T05:10:55;95686.34;;;29.49;32.66
68179;BME280;69812;42.632;23.440;2023-08-12T05:13:21;95690.09;;;30.38;31.10
68179;BME280;69812;42.632;23.440;2023-08-12T05:15:50;95694.91;;;31.29;29.19
68179;BME280;69812;42.632;23.440;2023-08-12T05:18:16;95698.84;;;32.19;27.99
68179;BME280;69812;42.632;23.440;2023-08-12T05:20:44;95694.53;;;33.44;26.22
68179;BME280;69812;42.632;23.440;2023-08-12T05:23:11;95698.84;;;34.27;25.03
68179;BME280;69812;42.632;23.440;2023-08-12T05:25:38;95693.69;;;34.46;25.11
68179;BME280;69812;42.632;23.440;2023-08-12T05:28:04;95697.81;;;35.43;24.26
68179;BME280;69812;42.632;23.440;2023-08-12T05:30:29;95689.31;;;36.04;23.43
68179;BME280;69812;42.632;23.440;2023-08-12T05:32:58;95698.03;;;36.92;21.66
68179;BME280;69812;42.632;23.440;2023-08-12T05:35:27;95696.13;;;37.88;20.70
68179;BME280;69812;42.632;23.440;2023-08-12T05:37:52;95709.88;;;38.00;20.49
68179;BME280;69812;42.632;23.440;2023-08-12T05:40:20;95699.31;;;38.22;20.80
68179;BME280;69812;42.632;23.440;2023-08-12T05:42:45;95699.31;;;37.90;21.50
68179;BME280;69812;42.632;23.440;2023-08-12T05:45:11;95702.78;;;37.38;21.37
68179;BME280;69812;42.632;23.440;2023-08-12T05:47:36;95696.16;;;37.50;20.89
68179;BME280;69812;42.632;23.440;2023-08-12T05:50:01;95697.13;;;39.08;19.23
68179;BME280;69812;42.632;23.440;2023-08-12T05:52:27;95692.88;;;40.11;19.01
68179;BME280;69812;42.632;23.440;2023-08-12T05:54:52;95693.34;;;40.84;17.77
68179;BME280;69812;42.632;23.440;2023-08-12T05:57:17;95694.91;;;40.85;17.69
68179;BME280;69812;42.632;23.440;2023-08-12T05:59:43;95680.53;;;41.07;17.14
68179;BME280;69812;42.632;23.440;2023-08-12T06:02:08;95681.34;;;41.25;16.77
68179;BME280;69812;42.632;23.440;2023-08-12T06:04:37;95681.53;;;41.63;16.96
68179;BME280;69812;42.632;23.440;2023-08-12T06:07:04;95677.06;;;41.06;16.82
68179;BME280;69812;42.632;23.440;2023-08-12T06:09:30;95678.22;;;41.40;15.95
68179;BME280;69812;42.632;23.440;2023-08-12T06:11:55;95678.06;;;40.71;16.90
68179;BME280;69812;42.632;23.440;2023-08-12T06:17:06;95672.44;;;38.41;18.35
68179;BME280;69812;42.632;23.440;2023-08-12T06:19:32;95673.25;;;39.20;18.25
68179;BME280;69812;42.632;23.440;2023-08-12T06:21:57;95670.44;;;40.55;17.83
68179;BME280;69812;42.632;23.440;2023-08-12T06:24:23;95672.69;;;40.22;16.93
68179;BME280;69812;42.632;23.440;2023-08-12T06:26:48;95668.16;;;40.71;16.49
68179;BME280;69812;42.632;23.440;2023-08-12T06:29:13;95660.28;;;41.62;16.19
68179;BME280;69812;42.632;23.440;2023-08-12T06:31:39;95660.44;;;42.30;15.71
68179;BME280;69812;42.632;23.440;2023-08-12T06:34:04;95661.66;;;43.22;14.25
68179;BME280;69812;42.632;23.440;2023-08-12T06:36:32;95657.09;;;43.56;14.07
68179;BME280;69812;42.632;23.440;2023-08-12T06:39:00;95652.03;;;43.87;13.60
68179;BME280;69812;42.632;23.440;2023-08-12T06:41:43;95649.00;;;44.01;13.07
68179;BME280;69812;42.632;23.440;2023-08-12T06:44:11;95642.38;;;42.90;13.43
68179;BME280;69812;42.632;23.440;2023-08-12T06:46:39;95645.53;;;43.34;13.31
68179;BME280;69812;42.632;23.440;2023-08-12T06:49:05;95640.78;;;43.85;12.97
68179;BME280;69812;42.632;23.440;2023-08-12T06:51:30;95641.25;;;44.98;12.27
68179;BME280;69812;42.632;23.440;2023-08-12T06:53:57;95639.34;;;45.83;12.07
68179;BME280;69812;42.632;23.440;2023-08-12T06:56:23;95635.31;;;45.93;12.06
68179;BME280;69812;42.632;23.440;2023-08-12T06:58:48;95632.78;;;45.68;12.02
68179;BME280;69812;42.632;23.440;2023-08-12T07:01:14;95628.78;;;44.57;12.34
68179;BME280;69812;42.632;23.440;2023-08-12T07:03:41;95635.88;;;45.55;11.20
68179;BME280;69812;42.632;23.440;2023-08-12T07:06:07;95632.81;;;46.16;11.31
68179;BME280;69812;42.632;23.440;2023-08-12T07:08:32;95632.22;;;47.09;11.37
68179;BME280;69812;42.632;23.440;2023-08-12T07:10:57;95627.84;;;47.86;10.65
68179;BME280;69812;42.632;23.440;2023-08-12T07:13:25;95631.66;;;47.39;10.71
68179;BME280;69812;42.632;23.440;2023-08-12T07:15:58;95620.63;;;46.26;11.08
68179;BME280;69812;42.632;23.440;2023-08-12T07:18:23;95625.84;;;46.66;10.84
68179;BME280;69812;42.632;23.440;2023-08-12T07:20:49;95626.25;;;47.20;10.84
68179;BME280;69812;42.632;23.440;2023-08-12T07:23:17;95625.69;;;47.72;10.28
68179;BME280;69812;42.632;23.440;2023-08-12T07:25:48;95619.63;;;47.60;10.23
68179;BME280;69812;42.632;23.440;2023-08-12T07:28:13;95629.91;;;47.11;10.81
68179;BME280;69812;42.632;23.440;2023-08-12T07:30:38;95616.84;;;47.37;10.30
68179;BME280;69812;42.632;23.440;2023-08-12T07:33:04;95623.69;;;47.50;10.67
68179;BME280;69812;42.632;23.440;2023-08-12T07:35:30;95617.75;;;46.86;10.87
68179;BME280;69812;42.632;23.440;2023-08-12T07:37:56;95616.50;;;45.84;11.88
68179;BME280;69812;42.632;23.440;2023-08-12T07:40:23;95615.28;;;45.66;12.12
68179;BME280;69812;42.632;23.440;2023-08-12T07:42:51;95609.59;;;45.87;11.84
68179;BME280;69812;42.632;23.440;2023-08-12T07:45:16;95603.91;;;45.32;11.96
68179;BME280;69812;42.632;23.440;2023-08-12T07:47:41;95605.41;;;43.03;13.29
68179;BME280;69812;42.632;23.440;2023-08-12T07:50:09;95603.13;;;41.13;15.26
68179;BME280;69812;42.632;23.440;2023-08-12T07:52:36;95599.75;;;40.06;16.12
68179;BME280;69812;42.632;23.440;2023-08-12T07:55:11;95599.72;;;39.43;16.67
68179;BME280;69812;42.632;23.440;2023-08-12T07:57:37;95600.09;;;39.82;15.87
68179;BME280;69812;42.632;23.440;2023-08-12T08:00:12;95589.38;;;39.59;15.91
68179;BME280;69812;42.632;23.440;2023-08-12T08:02:38;95592.13;;;40.57;15.54
68179;BME280;69812;42.632;23.440;2023-08-12T08:05:11;95585.94;;;41.78;14.41
68179;BME280;69812;42.632;23.440;2023-08-12T08:07:39;95582.53;;;41.43;15.35
68179;BME280;69812;42.632;23.440;2023-08-12T08:10:11;95589.34;;;41.32;14.46
68179;BME280;69812;42.632;23.440;2023-08-12T08:12:37;95588.25;;;41.24;14.88
68179;BME280;69812;42.632;23.440;2023-08-12T08:15:05;95579.94;;;40.59;15.18
68179;BME280;69812;42.632;23.440;2023-08-12T08:17:31;95582.94;;;40.00;15.37
68179;BME280;69812;42.632;23.440;2023-08-12T08:19:56;95584.75;;;39.29;16.10
68179;BME280;69812;42.632;23.440;2023-08-12T08:22:21;95583.88;;;38.97;16.80
68179;BME280;69812;42.632;23.440;2023-08-12T08:24:47;95570.81;;;36.86;18.29
68179;BME280;69812;42.632;23.440;2023-08-12T08:27:12;95579.44;;;36.40;18.93
68179;BME280;69812;42.632;23.440;2023-08-12T08:29:38;95576.56;;;32.51;22.40
68179;BME280;69812;42.632;23.440;2023-08-12T08:32:06;95566.06;;;29.18;26.61
68179;BME280;69812;42.632;23.440;2023-08-12T08:34:31;95573.84;;;27.86;28.08
68179;BME280;69812;42.632;23.440;2023-08-12T08:37:08;95584.00;;;26.33;31.95
68179;BME280;69812;42.632;23.440;2023-08-12T08:39:35;95574.56;;;25.45;33.25
68179;BME280;69812;42.632;23.440;2023-08-12T08:42:05;95573.06;;;24.99;33.24
68179;BME280;69812;42.632;23.440;2023-08-12T08:44:33;95572.28;;;24.98;34.22
68179;BME280;69812;42.632;23.440;2023-08-12T08:46:58;95573.91;;;24.93;34.28
68179;BME280;69812;42.632;23.440;2023-08-12T08:49:25;95571.19;;;25.38;34.87
68179;BME280;69812;42.632;23.440;2023-08-12T08:51:51;95570.81;;;25.78;34.33
68179;BME280;69812;42.632;23.440;2023-08-12T08:54:18;95570.00;;;26.02;33.68
68179;BME280;69812;42.632;23.440;2023-08-12T08:56:44;95561.81;;;25.92;33.10
68179;BME280;69812;42.632;23.440;2023-08-12T08:59:10;95566.50;;;25.15;34.50
68179;BME280;69812;42.632;23.440;2023-08-12T09:01:36;95561.28;;;25.08;34.38
68179;BME280;69812;42.632;23.440;2023-08-12T09:04:03;95565.25;;;25.17;34.04
68179;BME280;69812;42.632;23.440;2023-08-12T09:06:30;95550.03;;;25.01;34.48
68179;BME280;69812;42.632;23.440;2023-08-12T09:08:57;95551.72;;;24.89;34.18
68179;BME280;69812;42.632;23.440;2023-08-12T09:11:23;95550.38;;;25.11;33.46
68179;BME280;69812;42.632;23.440;2023-08-12T09:13:49;95545.78;;;25.32;34.91
68179;BME280;69812;42.632;23.440;2023-08-12T09:16:15;95554.00;;;25.60;33.77
68179;BME280;69812;42.632;23.440;2023-08-12T09:18:42;95544.66;;;25.21;34.24
68179;BME280;69812;42.632;23.440;2023-08-12T09:21:08;95538.41;;;24.90;34.18
68179;BME280;69812;42.632;23.440;2023-08-12T09:23:37;95546.72;;;24.80;34.79
68179;BME280;69812;42.632;23.440;2023-08-12T09:26:12;95542.72;;;24.78;35.47
68179;BME280;69812;42.632;23.440;2023-08-12T09:28:38;95536.78;;;24.89;34.68
68179;BME280;69812;42.632;23.440;2023-08-12T09:31:03;95522.53;;;24.40;34.78
68179;BME280;69812;42.632;23.440;2023-08-12T09:33:32;95529.56;;;24.53;35.68
68179;BME280;69812;42.632;23.440;2023-08-12T09:36:02;95520.47;;;24.55;35.10
68179;BME280;69812;42.632;23.440;2023-08-12T09:38:28;95521.50;;;24.41;35.24
68179;BME280;69812;42.632;23.440;2023-08-12T09:40:55;95520.03;;;24.58;35.71
68179;BME280;69812;42.632;23.440;2023-08-12T09:43:31;95516.38;;;24.21;35.87
68179;BME280;69812;42.632;23.440;2023-08-12T09:45:57;95514.88;;;24.38;36.96
68179;BME280;69812;42.632;23.440;2023-08-12T09:48:26;95511.22;;;24.39;35.60
68179;BME280;69812;42.632;23.440;2023-08-12T09:50:52;95516.06;;;24.43;36.31
68179;BME280;69812;42.632;23.440;2023-08-12T09:53:19;95517.44;;;24.52;35.56
68179;BME280;69812;42.632;23.440;2023-08-12T09:55:47;95504.34;;;24.45;35.64
68179;BME280;69812;42.632;23.440;2023-08-12T09:58:16;95507.44;;;24.35;35.60
68179;BME280;69812;42.632;23.440;2023-08-12T10:00:45;95493.97;;;24.64;36.07
68179;BME280;69812;42.632;23.440;2023-08-12T10:03:11;95498.38;;;24.95;35.93
68179;BME280;69812;42.632;23.440;2023-08-12T10:05:44;95496.00;;;24.87;34.26
68179;BME280;69812;42.632;23.440;2023-08-12T10:08:12;95496.34;;;24.97;34.87
68179;BME280;69812;42.632;23.440;2023-08-12T10:10:39;95502.84;;;25.19;34.05
68179;BME280;69812;42.632;23.440;2023-08-12T10:13:05;95497.59;;;25.19;33.76
68179;BME280;69812;42.632;23.440;2023-08-12T10:15:33;95492.69;;;24.98;34.85
68179;BME280;69812;42.632;23.440;2023-08-12T10:17:58;95492.34;;;24.94;34.32
68179;BME280;69812;42.632;23.440;2023-08-12T10:20:24;95485.38;;;24.82;34.52
68179;BME280;69812;42.632;23.440;2023-08-12T10:22:53;95479.78;;;24.96;33.85
68179;BME280;69812;42.632;23.440;2023-08-12T10:25:19;95473.44;;;24.54;33.93
68179;BME280;69812;42.632;23.440;2023-08-12T10:27:48;95480.47;;;24.85;34.84
68179;BME280;69812;42.632;23.440;2023-08-12T10:30:16;95485.38;;;24.82;34.05
68179;BME280;69812;42.632;23.440;2023-08-12T10:32:45;95488.41;;;24.78;34.71
68179;BME280;69812;42.632;23.440;2023-08-12T10:35:13;95479.56;;;24.98;33.29
68179;BME280;69812;42.632;23.440;2023-08-12T10:37:39;95462.59;;;24.75;34.25
68179;BME280;69812;42.632;23.440;2023-08-12T10:40:06;95472.22;;;25.07;33.95
68179;BME280;69812;42.632;23.440;2023-08-12T10:42:47;95466.13;;;24.88;33.24
68179;BME280;69812;42.632;23.440;2023-08-12T10:45:16;95461.28;;;24.85;33.92
68179;BME280;69812;42.632;23.440;2023-08-12T10:47:53;95449.56;;;24.87;33.95
68179;BME280;69812;42.632;23.440;2023-08-12T10:50:36;95462.16;;;25.04;32.71
68179;BME280;69812;42.632;23.440;2023-08-12T10:53:21;95459.25;;;24.87;33.19
68179;BME280;69812;42.632;23.440;2023-08-12T10:55:54;95457.16;;;24.95;33.16
68179;BME280;69812;42.632;23.440;2023-08-12T10:58:27;95444.78;;;25.02;32.08
68179;BME280;69812;42.632;23.440;2023-08-12T11:00:54;95444.84;;;25.21;32.44
68179;BME280;69812;42.632;23.440;2023-08-12T11:03:20;95441.44;;;25.20;32.01
68179;BME280;69812;42.632;23.440;2023-08-12T11:05:45;95444.78;;;25.28;32.85
68179;BME280;69812;42.632;23.440;2023-08-12T11:08:13;95436.59;;;25.54;30.72
68179;BME280;69812;42.632;23.440;2023-08-12T11:10:38;95432.97;;;25.55;32.12
68179;BME280;69812;42.632;23.440;2023-08-12T11:13:04;95429.03;;;25.65;31.62
68179;BME280;69812;42.632;23.440;2023-08-12T11:15:37;95433.25;;;25.47;30.89
68179;BME280;69812;42.632;23.440;2023-08-12T11:18:08;95430.44;;;25.49;31.67
68179;BME280;69812;42.632;23.440;2023-08-12T11:20:34;95423.47;;;25.54;31.38
68179;BME280;69812;42.632;23.440;2023-08-12T11:23:00;95430.22;;;25.80;31.05
68179;BME280;69812;42.632;23.440;2023-08-12T11:25:29;95427.13;;;25.90;30.22
68179;BME280;69812;42.632;23.440;2023-08-12T11:27:55;95426.25;;;25.96;31.43
68179;BME280;69812;42.632;23.440;2023-08-12T11:30:21;95422.59;;;25.79;29.32
68179;BME280;69812;42.632;23.440;2023-08-12T11:32:49;95422.72;;;26.02;30.35
68179;BME280;69812;42.632;23.440;2023-08-12T11:35:16;95423.75;;;26.01;28.85
68179;BME280;69812;42.632;23.440;2023-08-12T11:37:47;95419.38;;;25.95;29.63
68179;BME280;69812;42.632;23.440;2023-08-12T11:40:15;95424.88;;;25.94;30.18
68179;BME280;69812;42.632;23.440;2023-08-12T11:42:42;95417.81;;;26.06;28.49
68179;BME280;69812;42.632;23.440;2023-08-12T11:45:08;95421.84;;;25.72;28.79
68179;BME280;69812;42.632;23.440;2023-08-12T11:47:41;95425.28;;;25.91;27.86
68179;BME280;69812;42.632;23.440;2023-08-12T11:50:12;95416.16;;;25.93;27.40
68179;BME280;69812;42.632;23.440;2023-08-12T11:52:39;95420.09;;;26.02;27.70
68179;BME280;69812;42.632;23.440;2023-08-12T11:55:06;95406.09;;;25.90;27.34
68179;BME280;69812;42.632;23.440;2023-08-12T11:57:32;95402.81;;;25.76;27.60
68179;BME280;69812;42.632;23.440;2023-08-12T12:00:04;95404.47;;;26.19;28.88
68179;BME280;69812;42.632;23.440;2023-08-12T12:03:00;95410.19;;;26.58;27.58
68179;BME280;69812;42.632;23.440;2023-08-12T12:05:30;95401.41;;;26.76;27.96
68179;BME280;69812;42.632;23.440;2023-08-12T12:08:04;95407.91;;;26.62;28.51
68179;BME280;69812;42.632;23.440;2023-08-12T12:10:33;95404.63;;;26.78;27.65
68179;BME280;69812;42.632;23.440;2023-08-12T12:13:00;95380.00;;;26.96;27.78
68179;BME280;69812;42.632;23.440;2023-08-12T12:15:25;95388.34;;;27.29;28.08
68179;BME280;69812;42.632;23.440;2023-08-12T12:17:51;95392.50;;;27.65;27.48
68179;BME280;69812;42.632;23.440;2023-08-12T12:20:17;95387.00;;;27.66;27.40
68179;BME280;69812;42.632;23.440;2023-08-12T12:22:46;95381.41;;;28.20;26.58
68179;BME280;69812;42.632;23.440;2023-08-12T12:25:15;95387.00;;;28.41;27.15
68179;BME280;69812;42.632;23.440;2023-08-12T12:27:42;95393.28;;;28.85;27.08
68179;BME280;69812;42.632;23.440;2023-08-12T12:30:12;95392.53;;;28.39;25.82
68179;BME280;69812;42.632;23.440;2023-08-12T12:32:37;95376.66;;;28.05;26.37
68179;BME280;69812;42.632;23.440;2023-08-12T12:35:06;95385.00;;;27.85;26.04
68179;BME280;69812;42.632;23.440;2023-08-12T12:37:35;95377.09;;;27.85;26.37
68179;BME280;69812;42.632;23.440;2023-08-12T12:40:01;95377.38;;;28.01;26.75
68179;BME280;69812;42.632;23.440;2023-08-12T12:42:28;95370.22;;;28.13;27.70
68179;BME280;69812;42.632;23.440;2023-08-12T12:44:56;95368.38;;;27.44;27.79
68179;BME280;69812;42.632;23.440;2023-08-12T12:47:22;95376.09;;;26.99;28.37
68179;BME280;69812;42.632;23.440;2023-08-12T12:49:50;95368.88;;;27.30;27.72
68179;BME280;69812;42.632;23.440;2023-08-12T12:52:15;95365.75;;;27.85;26.93
68179;BME280;69812;42.632;23.440;2023-08-12T12:54:50;95365.97;;;28.97;26.27
68179;BME280;69812;42.632;23.440;2023-08-12T12:57:15;95377.88;;;30.04;24.75
68179;BME280;69812;42.632;23.440;2023-08-12T12:59:43;95370.03;;;30.42;23.90